createdAt,value
2023-02-18T00:01:39.844Z,96.40
2023-02-18T00:04:07.375Z,93.97
2023-02-18T00:06:36.593Z,93.65
2023-02-18T00:09:06.390Z,102.78
2023-02-18T00:11:35.966Z,101.50
2023-02-18T00:14:05.573Z,110.47
2023-02-18T00:16:33.110Z,98.10
2023-02-18T00:19:03.379Z,110.90
2023-02-18T00:21:35.099Z,112.43
2023-02-18T00:24:03.596Z,112.75
2023-02-18T00:26:31.159Z,111.75
2023-02-18T00:28:59.125Z,104.82
2023-02-18T00:31:32.196Z,111.35
2023-02-18T00:34:03.126Z,110.85
2023-02-18T00:36:31.302Z,121.20
2023-02-18T00:39:04.022Z,106.75
2023-02-18T00:41:31.969Z,122.97
2023-02-18T00:44:00.045Z,119.15
2023-02-18T00:46:28.750Z,111.93
2023-02-18T00:48:57.250Z,116.53
2023-02-18T00:51:25.782Z,126.60
2023-02-18T00:53:53.671Z,124.38
2023-02-18T00:56:21.511Z,129.65
2023-02-18T00:58:49.785Z,123.35
2023-02-18T01:01:17.690Z,130.02
2023-02-18T01:03:46.176Z,134.07
2023-02-18T01:06:15.174Z,130.18
2023-02-18T01:08:43.393Z,128.02
2023-02-18T01:11:13.080Z,135.48
2023-02-18T01:13:42.053Z,133.80
2023-02-18T01:16:10.757Z,130.88
2023-02-18T01:18:39.393Z,136.20
2023-02-18T01:21:10.417Z,136.02
2023-02-18T01:23:39.392Z,143.38
2023-02-18T01:26:07.797Z,140.90
2023-02-18T01:28:39.238Z,140.68
2023-02-18T01:31:09.198Z,141.55
2023-02-18T01:33:37.661Z,147.25
2023-02-18T01:36:06.285Z,150.15
2023-02-18T01:38:34.151Z,157.75
2023-02-18T01:41:01.863Z,146.00
2023-02-18T01:43:30.343Z,151.88
2023-02-18T01:46:19.435Z,149.63
2023-02-18T01:49:01.454Z,144.55
2023-02-18T01:51:32.473Z,139.88
2023-02-18T01:54:06.585Z,136.68
2023-02-18T01:56:45.183Z,135.07
2023-02-18T01:59:24.476Z,146.73
2023-02-18T02:01:52.889Z,147.15
2023-02-18T02:04:21.376Z,152.55
2023-02-18T02:06:48.955Z,147.88
2023-02-18T02:09:19.996Z,151.48
2023-02-18T02:12:10.826Z,148.52
2023-02-18T02:14:59.654Z,145.50
2023-02-18T02:17:46.678Z,150.05
2023-02-18T02:20:32.910Z,148.90
2023-02-18T02:23:18.542Z,151.38
2023-02-18T02:26:15.575Z,144.85
2023-02-18T02:29:04.825Z,141.10
2023-02-18T02:31:44.539Z,150.25
2023-02-18T02:34:33.142Z,139.98
2023-02-18T02:37:29.602Z,139.73
2023-02-18T02:40:12.496Z,136.95
2023-02-18T02:43:05.753Z,136.88
2023-02-18T02:45:52.085Z,125.63
2023-02-18T02:48:43.790Z,122.85
2023-02-18T02:51:44.130Z,120.82
2023-02-18T02:54:20.631Z,119.65
2023-02-18T02:56:48.682Z,129.82
2023-02-18T02:59:26.144Z,130.18
2023-02-18T03:02:13.574Z,121.78
2023-02-18T03:05:09.520Z,130.40
2023-02-18T03:07:36.977Z,113.60
2023-02-18T03:10:29.526Z,121.30
2023-02-18T03:13:26.074Z,126.15
2023-02-18T03:16:09.613Z,128.63
2023-02-18T03:18:58.230Z,144.90
2023-02-18T03:21:28.065Z,129.93
2023-02-18T03:24:30.662Z,129.40
2023-02-18T03:27:18.775Z,119.32
2023-02-18T03:29:50.606Z,120.53
2023-02-18T03:32:21.355Z,126.05
2023-02-18T03:34:53.578Z,127.40
2023-02-18T03:37:22.566Z,129.52
2023-02-18T03:39:55.525Z,124.97
2023-02-18T03:42:28.913Z,120.15
2023-02-18T03:44:56.622Z,120.45
2023-02-18T03:47:25.308Z,134.10
2023-02-18T03:49:52.752Z,133.80
2023-02-18T03:52:20.510Z,140.98
2023-02-18T03:54:48.465Z,139.38
2023-02-18T03:57:16.030Z,129.05
2023-02-18T03:59:43.666Z,151.80
2023-02-18T04:02:11.205Z,158.80
2023-02-18T04:04:38.991Z,146.45
2023-02-18T04:07:06.556Z,142.95
2023-02-18T04:09:34.124Z,153.88
2023-02-18T04:12:01.586Z,159.80
2023-02-18T04:14:29.056Z,154.15
2023-02-18T04:16:56.791Z,157.95
2023-02-18T04:19:24.322Z,158.63
2023-02-18T04:21:51.874Z,163.85
2023-02-18T04:24:19.395Z,161.90
2023-02-18T04:26:47.130Z,166.77
2023-02-18T04:29:14.928Z,157.90
2023-02-18T04:31:42.604Z,166.27
2023-02-18T04:34:10.324Z,169.55
2023-02-18T04:36:37.919Z,153.20
2023-02-18T04:39:05.442Z,160.60
2023-02-18T04:41:33.028Z,159.35
2023-02-18T04:44:00.752Z,137.20
2023-02-18T04:46:28.581Z,142.45
2023-02-18T04:48:56.237Z,139.80
2023-02-18T04:51:24.210Z,135.27
2023-02-18T04:53:51.774Z,142.07
2023-02-18T04:56:19.376Z,138.43
2023-02-18T04:58:49.920Z,133.80
2023-02-18T05:01:17.711Z,128.48
2023-02-18T05:03:46.232Z,126.32
2023-02-18T05:06:13.896Z,142.25
2023-02-18T05:08:41.452Z,132.82
2023-02-18T05:11:09.580Z,151.10
2023-02-18T05:13:37.135Z,148.77
2023-02-18T05:16:04.972Z,148.38
2023-02-18T05:18:32.485Z,153.07
2023-02-18T05:21:00.492Z,171.05
2023-02-18T05:23:28.079Z,171.27
2023-02-18T05:25:56.330Z,168.45
2023-02-18T05:28:23.907Z,166.70
2023-02-18T05:30:55.059Z,160.98
2023-02-18T05:33:22.624Z,156.10
2023-02-18T05:35:50.488Z,181.02
2023-02-18T05:38:18.063Z,162.20
2023-02-18T05:40:45.604Z,171.60
2023-02-18T05:43:13.332Z,184.13
2023-02-18T05:45:40.870Z,180.55
2023-02-18T05:48:08.644Z,175.88
2023-02-18T05:50:36.170Z,167.23
2023-02-18T05:53:03.904Z,162.35
2023-02-18T05:55:31.489Z,172.15
2023-02-18T05:57:59.024Z,161.82
2023-02-18T06:00:26.683Z,159.80
2023-02-18T06:02:54.318Z,174.55
2023-02-18T06:05:21.834Z,181.10
2023-02-18T06:07:49.682Z,168.20
2023-02-18T06:10:18.729Z,171.70
2023-02-18T06:12:47.256Z,161.10
2023-02-18T06:15:14.733Z,155.50
2023-02-18T06:17:42.276Z,164.85
2023-02-18T06:20:10.209Z,164.02
2023-02-18T06:22:37.742Z,174.32
2023-02-18T06:25:05.454Z,168.57
2023-02-18T06:27:32.908Z,173.55
2023-02-18T06:30:00.504Z,175.70
2023-02-18T06:32:28.109Z,167.25
2023-02-18T06:34:55.705Z,148.57
2023-02-18T06:37:26.255Z,155.80
2023-02-18T06:39:53.776Z,161.60
2023-02-18T06:42:21.208Z,167.10
2023-02-18T06:44:48.733Z,176.70
2023-02-18T06:47:16.283Z,163.82
2023-02-18T06:49:43.865Z,166.93
2023-02-18T06:52:11.548Z,158.20
2023-02-18T06:54:39.529Z,168.18
2023-02-18T06:57:07.726Z,169.38
2023-02-18T06:59:35.330Z,153.25
2023-02-18T07:02:07.408Z,160.73
2023-02-18T07:04:42.145Z,165.32
2023-02-18T07:07:10.250Z,150.35
2023-02-18T07:09:38.482Z,148.93
2023-02-18T07:12:24.395Z,165.98
2023-02-18T07:14:58.346Z,144.82
2023-02-18T07:17:26.044Z,162.18
2023-02-18T07:19:53.645Z,163.45
2023-02-18T07:22:21.236Z,148.68
2023-02-18T07:24:53.198Z,145.05
2023-02-18T07:27:21.703Z,143.57
2023-02-18T07:29:49.937Z,154.73
2023-02-18T07:32:20.179Z,149.63
2023-02-18T07:34:55.532Z,150.95
2023-02-18T07:37:23.384Z,151.93
2023-02-18T07:40:15.619Z,156.38
2023-02-18T07:42:44.005Z,160.50
2023-02-18T07:45:20.144Z,147.05
2023-02-18T07:47:48.069Z,149.10
2023-02-18T07:50:19.176Z,159.40
2023-02-18T07:52:46.713Z,166.57
2023-02-18T07:55:14.525Z,154.60
2023-02-18T07:58:03.776Z,157.77
2023-02-18T08:00:34.606Z,145.35
2023-02-18T08:03:09.822Z,156.68
2023-02-18T08:05:43.337Z,155.82
2023-02-18T08:08:18.659Z,143.93
2023-02-18T08:11:02.733Z,137.13
2023-02-18T08:13:34.685Z,144.23
2023-02-18T08:16:19.703Z,143.50
2023-02-18T08:18:48.840Z,143.77
2023-02-18T08:21:23.687Z,142.98
2023-02-18T08:23:51.386Z,146.40
2023-02-18T08:26:19.880Z,149.43
2023-02-18T08:28:57.153Z,151.55
2023-02-18T08:34:35.514Z,163.50
2023-02-18T08:37:31.478Z,161.32
2023-02-18T08:40:17.419Z,146.73
2023-02-18T08:45:55.350Z,156.27
2023-02-18T08:48:22.840Z,156.02
2023-02-18T08:50:53.476Z,153.45
2023-02-18T08:53:21.729Z,159.50
2023-02-18T08:56:13.291Z,167.23
2023-02-18T08:58:43.911Z,157.98
2023-02-18T09:01:13.424Z,168.85
2023-02-18T09:03:41.200Z,169.85
2023-02-18T09:06:30.712Z,157.68
2023-02-18T09:09:00.493Z,162.60
2023-02-18T09:11:30.100Z,171.60
2023-02-18T09:13:57.635Z,178.82
2023-02-18T09:16:26.320Z,180.45
2023-02-18T09:18:54.458Z,166.75
2023-02-18T09:21:23.527Z,166.55
2023-02-18T09:23:54.063Z,168.93
2023-02-18T09:26:43.060Z,161.50
2023-02-18T09:29:10.867Z,175.38
2023-02-18T09:31:39.615Z,177.65
2023-02-18T09:34:07.422Z,166.57
2023-02-18T09:36:35.354Z,178.82
2023-02-18T09:39:03.047Z,173.30
2023-02-18T09:41:48.338Z,175.85
2023-02-18T09:44:22.655Z,184.73
2023-02-18T09:47:19.058Z,172.93
2023-02-18T09:49:53.604Z,174.30
2023-02-18T09:52:25.953Z,175.45
2023-02-18T09:54:53.784Z,181.80
2023-02-18T09:57:43.125Z,187.10
2023-02-18T10:00:20.471Z,173.90
2023-02-18T10:03:00.012Z,186.18
2023-02-18T10:05:30.564Z,188.18
2023-02-18T10:08:08.128Z,174.27
2023-02-18T10:10:39.897Z,187.95
2023-02-18T10:13:15.759Z,174.73
2023-02-18T10:15:44.458Z,179.13
2023-02-18T10:18:27.438Z,174.50
2023-02-18T10:21:03.637Z,179.77
2023-02-18T10:23:34.162Z,177.93
2023-02-18T10:26:06.075Z,183.50
2023-02-18T10:28:35.411Z,183.60
2023-02-18T10:31:09.927Z,185.77
2023-02-18T10:34:06.833Z,191.88
2023-02-18T10:36:44.709Z,182.98
2023-02-18T10:39:32.537Z,193.82
2023-02-18T10:42:21.816Z,191.43
2023-02-18T10:45:23.295Z,193.60
2023-02-18T10:48:09.537Z,194.13
2023-02-18T10:50:45.391Z,200.65
2023-02-18T10:53:32.633Z,192.52
2023-02-18T10:56:01.004Z,201.60
2023-02-18T10:58:37.190Z,187.90
2023-02-18T11:01:13.454Z,194.48
2023-02-18T11:03:53.536Z,183.90
2023-02-18T11:06:40.906Z,178.10
2023-02-18T11:09:21.388Z,172.93
2023-02-18T11:11:53.681Z,172.38
2023-02-18T11:14:47.857Z,173.60
2023-02-18T11:17:29.922Z,182.02
2023-02-18T11:20:02.811Z,176.50
2023-02-18T11:22:33.328Z,180.75
2023-02-18T11:25:02.807Z,179.25
2023-02-18T11:27:44.135Z,170.75
2023-02-18T11:30:35.013Z,188.40
2023-02-18T11:33:23.605Z,175.90
2023-02-18T11:35:56.897Z,168.82
2023-02-18T11:38:35.498Z,178.25
2023-02-18T11:41:12.184Z,171.02
2023-02-18T11:43:54.652Z,173.05
2023-02-18T11:46:25.155Z,174.75
2023-02-18T11:48:53.993Z,190.23
2023-02-18T11:51:38.581Z,184.65
2023-02-18T11:54:21.909Z,178.35
2023-02-18T11:57:20.306Z,185.75
2023-02-18T11:59:50.530Z,183.90
2023-02-18T12:02:38.180Z,185.90
2023-02-18T12:05:18.301Z,183.93
2023-02-18T12:07:51.049Z,171.82
2023-02-18T12:10:38.385Z,172.77
2023-02-18T12:13:35.477Z,177.38
2023-02-18T12:16:22.298Z,171.23
2023-02-18T12:19:41.430Z,177.80
2023-02-18T12:22:29.142Z,170.10
2023-02-18T12:25:12.230Z,162.63
2023-02-18T12:28:00.521Z,178.65
2023-02-18T12:30:46.456Z,186.35
2023-02-18T13:17:45.756Z,168.63
2023-02-18T13:20:27.346Z,166.63
2023-02-18T13:22:57.217Z,166.27
2023-02-18T13:25:26.243Z,162.23
2023-02-18T13:28:10.148Z,168.82
2023-02-18T13:30:51.187Z,181.03
2023-02-18T13:33:35.927Z,155.55
2023-02-18T13:36:32.329Z,169.55
2023-02-18T13:39:08.832Z,154.38
2023-02-18T13:41:42.240Z,158.98
2023-02-18T13:44:41.169Z,165.07
2023-02-18T13:47:12.017Z,165.93
2023-02-18T13:49:43.055Z,171.07
2023-02-18T13:52:20.298Z,160.43
2023-02-18T13:54:58.582Z,152.93
2023-02-18T13:57:29.204Z,151.82
2023-02-18T14:00:05.406Z,140.05
2023-02-18T14:02:57.899Z,145.48
2023-02-18T14:05:39.788Z,160.35
2023-02-18T14:08:29.058Z,155.60
2023-02-18T14:11:17.560Z,164.75
2023-02-18T14:14:17.141Z,158.90
2023-02-18T14:17:22.669Z,152.98
2023-02-18T14:20:18.152Z,141.90
2023-02-18T14:23:19.701Z,139.40
2023-02-18T14:26:42.560Z,140.02
2023-02-18T14:29:59.691Z,146.30
2023-02-18T14:36:53.208Z,143.40
2023-02-18T14:40:09.950Z,137.30
2023-02-18T14:43:01.481Z,141.73
2023-02-18T14:46:10.444Z,142.27
2023-02-18T14:49:02.370Z,135.98
2023-02-18T14:51:59.186Z,129.90
2023-02-18T14:54:54.191Z,139.38
2023-02-18T14:57:36.835Z,137.77
2023-02-18T15:00:05.874Z,139.05
2023-02-18T15:02:40.809Z,142.38
2023-02-18T15:08:10.302Z,136.15
2023-02-18T15:10:49.471Z,137.38
2023-02-18T15:13:33.093Z,137.27
2023-02-18T15:16:20.376Z,153.73
2023-02-18T15:19:00.474Z,153.73
2023-02-18T15:21:42.796Z,160.10
2023-02-18T15:24:26.362Z,139.82
2023-02-18T15:26:59.507Z,143.32
2023-02-18T15:29:30.780Z,154.68
2023-02-18T15:31:59.640Z,145.80
2023-02-18T15:34:31.418Z,155.45
2023-02-18T15:37:05.036Z,141.82
2023-02-18T15:39:33.517Z,147.70
2023-02-18T15:42:27.569Z,139.27
2023-02-18T15:45:22.538Z,155.43
2023-02-18T15:47:55.888Z,154.38
2023-02-18T15:50:44.426Z,148.32
2023-02-18T15:53:17.282Z,157.30
2023-02-18T15:55:48.332Z,160.05
2023-02-18T15:58:22.451Z,144.80
2023-02-18T16:00:53.693Z,176.88
2023-02-18T16:04:01.903Z,145.63
2023-02-18T16:09:17.217Z,158.45
2023-02-18T16:11:52.255Z,143.20
2023-02-18T16:14:35.831Z,156.63
2023-02-18T16:17:12.046Z,162.90
2023-02-18T16:20:05.386Z,158.82
2023-02-18T16:22:43.015Z,159.38
2023-02-18T16:25:16.096Z,162.25
2023-02-18T16:28:01.710Z,139.15
2023-02-18T16:30:46.507Z,148.03
2023-02-18T16:33:34.954Z,155.38
2023-02-18T16:51:54.857Z,149.63
2023-02-18T16:55:35.545Z,156.68
2023-02-18T16:58:09.911Z,164.65
2023-02-18T17:00:44.783Z,165.48
2023-02-18T17:06:25.212Z,155.07
2023-02-18T17:12:45.275Z,157.68
2023-02-18T17:16:00.277Z,156.90
2023-02-18T17:18:27.872Z,153.30
2023-02-18T17:20:58.867Z,155.52
2023-02-18T17:23:35.525Z,149.15
2023-02-18T17:26:06.350Z,164.55
2023-02-18T17:37:56.623Z,179.23
2023-02-18T17:40:32.729Z,159.52
2023-02-18T17:43:15.793Z,150.18
2023-02-18T17:50:01.024Z,167.70
2023-02-18T17:55:54.650Z,163.68
2023-02-18T17:58:22.295Z,163.18
2023-02-18T18:00:55.472Z,167.65
2023-02-18T18:03:26.243Z,163.98
2023-02-18T18:05:54.576Z,169.43
2023-02-18T18:08:22.293Z,161.95
2023-02-18T18:10:56.097Z,163.32
2023-02-18T18:13:29.540Z,159.90
2023-02-18T18:16:02.729Z,152.77
2023-02-18T18:18:37.110Z,178.07
2023-02-18T18:21:20.782Z,160.45
2023-02-18T18:25:05.215Z,157.88
2023-02-18T18:27:36.906Z,160.20
2023-02-18T18:30:10.362Z,151.77
2023-02-18T18:32:58.539Z,162.60
2023-02-18T18:39:42.986Z,151.18
2023-02-18T18:42:12.952Z,156.43
2023-02-18T18:44:41.188Z,162.07
2023-02-18T18:47:08.902Z,156.05
2023-02-18T18:49:36.442Z,150.15
2023-02-18T18:52:04.808Z,142.32
2023-02-18T18:54:32.469Z,154.77
2023-02-18T18:57:00.225Z,149.32
2023-02-18T18:59:27.785Z,155.82
2023-02-18T19:01:55.491Z,144.05
2023-02-18T19:04:26.277Z,145.70
2023-02-18T19:06:54.218Z,142.35
2023-02-18T19:09:25.302Z,160.02
2023-02-18T19:11:53.007Z,153.65
2023-02-18T19:14:22.175Z,149.25
2023-02-18T19:16:49.804Z,156.52
2023-02-18T19:19:26.584Z,145.80
2023-02-18T19:21:54.306Z,156.95
2023-02-18T19:24:21.815Z,149.07
2023-02-18T19:26:49.397Z,157.00
2023-02-18T19:29:21.488Z,159.63
2023-02-18T19:31:51.974Z,168.73
2023-02-18T19:34:19.621Z,164.95
2023-02-18T19:36:48.162Z,147.60
2023-02-18T19:39:15.658Z,144.63
2023-02-18T19:41:43.419Z,147.85
2023-02-18T19:44:11.100Z,148.57
2023-02-18T19:46:38.593Z,137.23
2023-02-18T19:49:06.440Z,150.52
2023-02-18T19:51:34.898Z,153.23
2023-02-18T19:54:03.618Z,145.88
2023-02-18T19:56:31.328Z,150.82
2023-02-18T19:58:59.014Z,151.63
2023-02-18T20:01:27.082Z,151.65
2023-02-18T20:03:55.313Z,147.23
2023-02-18T20:06:22.929Z,148.35
2023-02-18T20:09:22.138Z,145.10
2023-02-18T20:11:52.883Z,142.75
2023-02-18T20:14:21.487Z,133.40
2023-02-18T20:16:48.966Z,143.60
2023-02-18T20:19:16.464Z,135.85
2023-02-18T20:21:44.014Z,149.40
2023-02-18T20:24:11.742Z,147.70
2023-02-18T20:26:39.567Z,146.48
2023-02-18T20:29:07.112Z,155.40
2023-02-18T20:50:21.927Z,147.10
2023-02-18T20:52:53.456Z,137.27
2023-02-18T20:55:24.440Z,146.13
2023-02-18T20:58:00.695Z,152.45
2023-02-18T21:01:16.036Z,140.55
2023-02-18T21:04:12.097Z,137.77
2023-02-18T21:06:53.799Z,134.00
2023-02-18T23:02:40.862Z,166.55
2023-02-18T23:21:06.170Z,169.38
2023-02-18T23:29:55.935Z,169.57
